Time;durP1;ratioP1;P1;durP2;ratioP2;P2;SDS_P1;SDS_P2;PMS_P1;PMS_P2;Temp;Humidity;BMP_temperature;BMP_pressure;BME280_temperature;BME280_humidity;BME280_pressure;Samples;Min_cycle;Max_cycle;Signal;HPM_P1;HPM_P2
2022/01/09 00:00:29;;;;;;;;;;;0.40;99.90;;;;;;5086994;28;19932;-79
2022/01/09 00:02:56;;;;;;;;;;;0.30;99.90;;;;;;5086113;28;19925;-79
2022/01/09 00:05:24;;;;;;;;;;;0.30;99.90;;;;;;5085121;28;19928;-80
2022/01/09 00:07:50;;;;;;;;;;;0.30;99.90;;;;;;5087761;28;19925;-78
2022/01/09 00:10:18;;;;;;;;;;;0.30;99.90;;;;;;5091169;28;19925;-77
2022/01/09 00:12:44;;;;;;;;;;;0.30;99.90;;;;;;5091123;28;19924;-78
2022/01/09 00:15:11;;;;;;;;;;;0.30;99.90;;;;;;5088560;28;19944;-79
2022/01/09 00:17:37;;;;;;;;;;;0.30;99.90;;;;;;5087660;28;20393;-78
2022/01/09 00:20:05;;;;;;;;;;;0.30;99.90;;;;;;5085098;28;19924;-78
2022/01/09 00:22:37;;;;;;;;;;;0.30;99.90;;;;;;5084863;28;19924;-78
2022/01/09 00:25:05;;;;;;;;;;;0.30;99.90;;;;;;5086102;28;19931;-79
2022/01/09 00:27:32;;;;;;;;;;;0.40;99.90;;;;;;5085159;28;19974;-80
2022/01/09 00:29:58;;;;;;;;;;;0.40;99.90;;;;;;5087088;28;20298;-79
2022/01/09 00:32:25;;;;;;;;;;;0.30;99.90;;;;;;5081122;28;19925;-79
2022/01/09 00:34:51;;;;;;;;;;;0.30;99.90;;;;;;5088034;28;19924;-79
2022/01/09 00:37:18;;;;;;;;;;;0.30;99.90;;;;;;5088583;28;19928;-78
2022/01/09 00:39:45;;;;;;;;;;;0.20;99.90;;;;;;5088245;28;19925;-80
2022/01/09 00:42:12;;;;;;;;;;;0.20;99.90;;;;;;5087586;28;19925;-80
2022/01/09 00:44:38;;;;;;;;;;;0.10;99.90;;;;;;5089839;28;19928;-79
2022/01/09 00:47:05;;;;;;;;;;;0.10;99.90;;;;;;5091387;28;19936;-79
2022/01/09 00:49:31;;;;;;;;;;;0.10;99.90;;;;;;5087446;28;19932;-79
2022/01/09 00:51:58;;;;;;;;;;;0.10;99.90;;;;;;5083781;28;19936;-79
2022/01/09 00:54:24;;;;;;;;;;;0.10;99.90;;;;;;5079995;28;19924;-79
2022/01/09 00:56:52;;;;;;;;;;;0.00;99.90;;;;;;5080429;28;19974;-79
2022/01/09 00:59:18;;;;;;;;;;;0.00;99.90;;;;;;5080162;28;19932;-79
2022/01/09 01:01:45;;;;;;;;;;;0.00;99.90;;;;;;5080202;28;19959;-80
2022/01/09 01:04:11;;;;;;;;;;;0.00;99.90;;;;;;5080159;28;19925;-79
2022/01/09 01:06:38;;;;;;;;;;;0.00;99.90;;;;;;5079816;28;20426;-79
2022/01/09 01:09:04;;;;;;;;;;;-0.10;99.90;;;;;;5080736;28;20434;-79
2022/01/09 01:11:31;;;;;;;;;;;-0.10;99.90;;;;;;5080038;28;19991;-80
2022/01/09 01:13:59;;;;;;;;;;;-0.10;99.90;;;;;;5079969;28;20284;-79
2022/01/09 01:16:25;;;;;;;;;;;-0.10;99.90;;;;;;5080074;28;20334;-79
2022/01/09 01:18:54;;;;;;;;;;;-0.20;99.90;;;;;;5080374;28;19985;-79
2022/01/09 01:21:23;;;;;;;;;;;-0.20;99.90;;;;;;5079856;28;20294;-79
2022/01/09 01:23:49;;;;;;;;;;;-0.20;99.90;;;;;;5079133;28;19924;-79
2022/01/09 01:26:16;;;;;;;;;;;-0.20;99.90;;;;;;5079635;28;19924;-79
2022/01/09 01:28:42;;;;;;;;;;;-0.20;99.90;;;;;;5079035;28;19974;-79
2022/01/09 01:31:10;;;;;;;;;;;-0.20;99.90;;;;;;5079112;28;19925;-79
2022/01/09 01:33:36;;;;;;;;;;;-0.20;99.90;;;;;;5080118;28;19924;-79
2022/01/09 01:36:03;;;;;;;;;;;-0.20;99.90;;;;;;5080244;28;19967;-80
2022/01/09 01:38:30;;;;;;;;;;;-0.20;99.90;;;;;;5082496;28;19924;-79
2022/01/09 01:40:57;;;;;;;;;;;-0.20;99.90;;;;;;5081544;28;19959;-80
2022/01/09 01:43:23;;;;;;;;;;;-0.20;99.90;;;;;;5081608;28;20320;-80
2022/01/09 01:45:49;;;;;;;;;;;-0.20;99.90;;;;;;5084066;28;19925;-79
2022/01/09 01:48:18;;;;;;;;;;;-0.20;99.90;;;;;;5081815;28;19972;-80
2022/01/09 01:50:46;;;;;;;;;;;-0.20;99.90;;;;;;5081401;28;19967;-79
2022/01/09 01:53:16;;;;;;;;;;;-0.20;99.90;;;;;;5084236;28;19933;-79
2022/01/09 01:55:44;;;;;;;;;;;-0.10;99.90;;;;;;5090413;28;19924;-78
2022/01/09 01:58:11;;;;;;;;;;;-0.20;99.90;;;;;;5097069;28;19939;-78
2022/01/09 02:00:38;;;;;;;;;;;-0.10;99.90;;;;;;5095879;28;19935;-78
2022/01/09 02:03:05;;;;;;;;;;;-0.10;99.90;;;;;;5097600;28;19962;-79
2022/01/09 02:05:32;;;;;;;;;;;-0.10;99.90;;;;;;5093321;28;19950;-80
2022/01/09 02:08:02;;;;;;;;;;;-0.10;99.90;;;;;;5090199;28;19924;-78
2022/01/09 02:10:28;;;;;;;;;;;-0.10;99.90;;;;;;5081903;28;19978;-79
2022/01/09 02:12:56;;;;;;;;;;;-0.10;99.90;;;;;;5089252;28;19912;-79
2022/01/09 02:15:25;;;;;;;;;;;-0.10;99.90;;;;;;5083104;28;19929;-80
2022/01/09 02:17:52;;;;;;;;;;;-0.10;99.90;;;;;;5079930;28;19924;-79
2022/01/09 02:20:19;;;;;;;;;;;-0.10;99.90;;;;;;5078251;28;19935;-79
2022/01/09 02:22:46;;;;;;;;;;;-0.10;99.90;;;;;;5078056;28;19994;-79
2022/01/09 02:25:14;;;;;;;;;;;-0.10;99.90;;;;;;5078703;28;19925;-80
2022/01/09 02:27:40;;;;;;;;;;;-0.10;99.90;;;;;;5078292;28;19928;-79
2022/01/09 02:30:07;;;;;;;;;;;-0.10;99.90;;;;;;5077092;28;19924;-79
2022/01/09 02:32:34;;;;;;;;;;;-0.10;99.90;;;;;;5078304;28;19942;-80
2022/01/09 02:35:00;;;;;;;;;;;-0.10;99.90;;;;;;5077855;28;19974;-80
2022/01/09 02:37:28;;;;;;;;;;;-0.10;99.90;;;;;;5078660;28;19975;-80
2022/01/09 02:39:55;;;;;;;;;;;-0.10;99.90;;;;;;5078358;28;19967;-80
2022/01/09 02:42:23;;;;;;;;;;;-0.10;99.90;;;;;;5075996;28;19973;-79
2022/01/09 02:44:49;;;;;;;;;;;-0.20;99.90;;;;;;5075120;28;20011;-79
2022/01/09 02:47:16;;;;;;;;;;;-0.10;99.90;;;;;;5077793;28;19946;-80
2022/01/09 02:49:47;;;;;;;;;;;-0.10;99.90;;;;;;5102746;23;19925;-79
2022/01/09 02:52:27;;;;;;;;;;;-0.20;99.90;;;;;;5097116;28;19909;-79
2022/01/09 02:55:12;;;;;;;;;;;-0.10;99.90;;;;;;5096777;28;19924;-79
2022/01/09 02:57:39;;;;;;;;;;;-0.20;99.90;;;;;;5093272;28;19939;-79
2022/01/09 03:00:06;;;;;;;;;;;-0.20;99.90;;;;;;5092893;28;19924;-79
2022/01/09 03:02:33;;;;;;;;;;;-0.20;99.90;;;;;;5091391;28;19928;-79
2022/01/09 03:04:59;;;;;;;;;;;-0.20;99.90;;;;;;5092185;28;19928;-79
2022/01/09 03:07:26;;;;;;;;;;;-0.20;99.90;;;;;;5098224;28;19924;-79
2022/01/09 03:09:52;;;;;;;;;;;0.00;99.90;;;;;;5099016;28;19940;-78
2022/01/09 03:12:20;;;;;;;;;;;-0.10;99.90;;;;;;5094303;28;19924;-79
2022/01/09 03:14:46;;;;;;;;;;;-0.10;99.90;;;;;;5091425;28;19990;-79
2022/01/09 03:17:13;;;;;;;;;;;-0.10;99.90;;;;;;5091787;28;19924;-78
2022/01/09 03:19:39;;;;;;;;;;;-0.10;99.90;;;;;;5089747;28;19970;-79
2022/01/09 03:22:06;;;;;;;;;;;-0.20;99.90;;;;;;5089893;28;19924;-79
2022/01/09 03:24:32;;;;;;;;;;;-0.10;99.90;;;;;;5088904;28;19924;-79
2022/01/09 03:26:59;;;;;;;;;;;-0.10;99.90;;;;;;5088555;28;19931;-79
2022/01/09 03:29:27;;;;;;;;;;;-0.10;99.90;;;;;;5088846;28;19928;-79
2022/01/09 03:31:53;;;;;;;;;;;-0.20;99.90;;;;;;5084888;28;19925;-79
2022/01/09 03:34:20;;;;;;;;;;;-0.10;99.90;;;;;;5083283;28;19928;-79
2022/01/09 03:36:46;;;;;;;;;;;-0.10;99.90;;;;;;5082536;28;19925;-79
2022/01/09 03:39:13;;;;;;;;;;;-0.10;99.90;;;;;;5081260;28;19963;-79
2022/01/09 03:41:39;;;;;;;;;;;-0.10;99.90;;;;;;5079987;28;19928;-79
2022/01/09 03:44:06;;;;;;;;;;;-0.10;99.90;;;;;;5088036;28;19974;-79
2022/01/09 03:46:34;;;;;;;;;;;-0.10;99.90;;;;;;5092240;28;19925;-80
2022/01/09 03:49:00;;;;;;;;;;;-0.10;99.90;;;;;;5095457;28;19982;-79
2022/01/09 03:51:32;;;;;;;;;;;-0.20;99.90;;;;;;5087353;28;19924;-78
2022/01/09 03:53:59;;;;;;;;;;;-0.20;99.90;;;;;;5085434;28;19971;-79
2022/01/09 03:56:25;;;;;;;;;;;-0.20;99.90;;;;;;5081412;28;20359;-79
2022/01/09 03:58:52;;;;;;;;;;;-0.20;99.90;;;;;;5082987;28;19924;-80
2022/01/09 04:01:18;;;;;;;;;;;0.00;99.90;;;;;;5092869;28;19925;-80
2022/01/09 04:03:46;;;;;;;;;;;-0.40;99.90;;;;;;5089731;28;19924;-79
2022/01/09 04:06:12;;;;;;;;;;;-0.20;99.90;;;;;;5092561;28;19924;-79
2022/01/09 04:08:39;;;;;;;;;;;-0.20;99.90;;;;;;5094332;28;19947;-79
2022/01/09 04:11:06;;;;;;;;;;;-0.20;99.90;;;;;;5094902;28;19979;-79
2022/01/09 04:13:33;;;;;;;;;;;-0.20;99.90;;;;;;5095298;28;19960;-79
2022/01/09 04:16:00;;;;;;;;;;;-0.20;99.90;;;;;;5094572;28;19928;-80
2022/01/09 04:18:28;;;;;;;;;;;-0.20;99.90;;;;;;5093513;28;20375;-80
2022/01/09 04:20:56;;;;;;;;;;;-0.20;99.90;;;;;;5085871;28;19924;-79
2022/01/09 04:23:22;;;;;;;;;;;-0.20;99.90;;;;;;5087663;28;19924;-78
2022/01/09 04:25:49;;;;;;;;;;;-0.20;99.90;;;;;;5081805;28;19932;-78
2022/01/09 04:28:16;;;;;;;;;;;-0.20;99.90;;;;;;5080737;28;19924;-78
2022/01/09 04:30:42;;;;;;;;;;;-0.10;99.90;;;;;;5080253;28;19932;-78
2022/01/09 04:33:10;;;;;;;;;;;-0.10;99.90;;;;;;5079837;28;19924;-78
2022/01/09 04:35:37;;;;;;;;;;;-0.10;99.90;;;;;;5079726;28;19998;-78
2022/01/09 04:38:05;;;;;;;;;;;-0.10;99.90;;;;;;5087850;28;19974;-79
2022/01/09 04:40:32;;;;;;;;;;;-0.10;99.90;;;;;;5091349;28;19925;-78
2022/01/09 04:43:01;;;;;;;;;;;-0.10;99.90;;;;;;5094030;28;19935;-78
2022/01/09 04:45:28;;;;;;;;;;;-0.10;99.90;;;;;;5093728;28;19980;-78
2022/01/09 04:47:59;;;;;;;;;;;-0.10;99.90;;;;;;5094690;28;19924;-77
2022/01/09 04:50:27;;;;;;;;;;;-0.10;99.90;;;;;;5092836;28;19924;-78
2022/01/09 04:52:59;;;;;;;;;;;-0.10;99.90;;;;;;5091149;28;19978;-78
2022/01/09 04:55:27;;;;;;;;;;;-0.10;99.90;;;;;;5090533;28;19955;-78
2022/01/09 04:57:54;;;;;;;;;;;-0.10;99.90;;;;;;5081317;28;19924;-78
2022/01/09 05:00:20;;;;;;;;;;;-0.10;99.90;;;;;;5087514;28;19954;-78
2022/01/09 05:02:47;;;;;;;;;;;-0.10;99.90;;;;;;5088374;28;19924;-78
2022/01/09 05:05:13;;;;;;;;;;;-0.10;99.90;;;;;;5089262;28;19931;-78
2022/01/09 05:07:40;;;;;;;;;;;-0.10;99.90;;;;;;5086944;28;19935;-78
2022/01/09 05:10:08;;;;;;;;;;;0.00;99.90;;;;;;5088405;28;19946;-78
2022/01/09 05:12:36;;;;;;;;;;;0.00;99.90;;;;;;5083150;28;19974;-79
2022/01/09 05:15:03;;;;;;;;;;;0.00;99.90;;;;;;5079652;28;19925;-80
2022/01/09 05:17:30;;;;;;;;;;;0.00;99.90;;;;;;5081133;28;20006;-80
2022/01/09 05:19:57;;;;;;;;;;;0.00;99.90;;;;;;5079953;28;19994;-79
2022/01/09 05:22:24;;;;;;;;;;;0.00;99.90;;;;;;5079406;28;19924;-79
2022/01/09 05:24:51;;;;;;;;;;;0.00;99.90;;;;;;5079760;28;19925;-79
2022/01/09 05:27:17;;;;;;;;;;;0.00;99.90;;;;;;5079211;28;19924;-80
2022/01/09 05:29:45;;;;;;;;;;;0.00;99.90;;;;;;5079573;28;19946;-81
2022/01/09 05:32:11;;;;;;;;;;;0.00;99.90;;;;;;5076773;28;19925;-79
2022/01/09 05:34:38;;;;;;;;;;;0.00;99.90;;;;;;5076344;28;20391;-79
2022/01/09 05:37:05;;;;;;;;;;;0.00;99.90;;;;;;5076674;28;19974;-77
2022/01/09 05:39:31;;;;;;;;;;;0.00;99.90;;;;;;5077649;28;19967;-79
2022/01/09 05:41:59;;;;;;;;;;;0.00;99.90;;;;;;5079135;28;20363;-79
2022/01/09 05:44:25;;;;;;;;;;;0.00;99.90;;;;;;5079592;28;20398;-78
2022/01/09 05:46:53;;;;;;;;;;;0.00;99.90;;;;;;5084657;28;19925;-77
2022/01/09 05:49:19;;;;;;;;;;;0.00;99.90;;;;;;5081426;28;19975;-79
2022/01/09 05:51:46;;;;;;;;;;;0.00;99.90;;;;;;5079296;28;19924;-78
2022/01/09 05:54:13;;;;;;;;;;;0.00;99.90;;;;;;5079927;28;19924;-80
2022/01/09 05:56:39;;;;;;;;;;;0.00;99.90;;;;;;5078778;28;19963;-79
2022/01/09 05:59:05;;;;;;;;;;;0.10;99.90;;;;;;5078559;28;20371;-79
2022/01/09 06:01:32;;;;;;;;;;;0.10;99.90;;;;;;5077688;28;19975;-79
2022/01/09 06:04:00;;;;;;;;;;;0.10;99.90;;;;;;5078626;28;19952;-79
2022/01/09 06:06:26;;;;;;;;;;;0.10;99.90;;;;;;5078099;28;19942;-79
2022/01/09 06:08:53;;;;;;;;;;;0.20;99.90;;;;;;5079233;28;19939;-79
2022/01/09 06:11:19;;;;;;;;;;;0.20;99.90;;;;;;5079392;28;19925;-78
2022/01/09 06:13:45;;;;;;;;;;;0.20;99.90;;;;;;5078979;28;19970;-79
2022/01/09 06:16:13;;;;;;;;;;;0.30;99.90;;;;;;5078856;28;19936;-80
2022/01/09 06:18:39;;;;;;;;;;;0.30;99.90;;;;;;5079431;28;20441;-79
2022/01/09 06:21:07;;;;;;;;;;;0.40;99.90;;;;;;5078097;28;20298;-79
2022/01/09 06:23:33;;;;;;;;;;;0.30;99.90;;;;;;5078906;28;19994;-78
2022/01/09 06:26:00;;;;;;;;;;;0.40;99.90;;;;;;5079978;28;20369;-80
2022/01/09 06:28:26;;;;;;;;;;;0.40;99.90;;;;;;5079611;28;19928;-79
2022/01/09 06:30:53;;;;;;;;;;;0.40;99.90;;;;;;5079421;28;19970;-80
2022/01/09 06:33:19;;;;;;;;;;;0.40;99.90;;;;;;5079627;28;19978;-79
2022/01/09 06:35:46;;;;;;;;;;;0.50;99.90;;;;;;5078527;28;19947;-79
2022/01/09 06:38:14;;;;;;;;;;;0.50;99.90;;;;;;5077853;28;19970;-79
2022/01/09 06:40:41;;;;;;;;;;;0.50;99.90;;;;;;5077866;28;19928;-79
2022/01/09 06:43:08;;;;;;;;;;;0.50;99.90;;;;;;5077132;28;20414;-79
2022/01/09 06:45:34;;;;;;;;;;;0.60;99.90;;;;;;5078656;28;20330;-80
2022/01/09 06:48:02;;;;;;;;;;;0.60;99.90;;;;;;5077789;28;19935;-80
2022/01/09 06:50:28;;;;;;;;;;;0.60;99.90;;;;;;5077639;28;20345;-80
2022/01/09 06:52:55;;;;;;;;;;;0.60;99.90;;;;;;5077386;28;19924;-80
2022/01/09 06:55:23;;;;;;;;;;;0.60;99.90;;;;;;5077940;28;20019;-80
2022/01/09 06:57:49;;;;;;;;;;;0.50;99.90;;;;;;5077624;28;20399;-80
2022/01/09 07:00:17;;;;;;;;;;;0.50;99.90;;;;;;5078279;28;20323;-80
2022/01/09 07:02:44;;;;;;;;;;;0.50;99.90;;;;;;5077727;28;20380;-80
2022/01/09 07:05:11;;;;;;;;;;;0.50;99.90;;;;;;5077076;28;19924;-81
2022/01/09 07:07:40;;;;;;;;;;;0.50;99.90;;;;;;5077977;28;19924;-79
2022/01/09 07:10:07;;;;;;;;;;;-1.60;99.90;;;;;;5077968;28;20279;-79
2022/01/09 07:12:35;;;;;;;;;;;0.50;99.90;;;;;;5076867;28;19951;-80
2022/01/09 07:15:01;;;;;;;;;;;0.50;99.90;;;;;;5077039;28;19924;-80
2022/01/09 07:17:28;;;;;;;;;;;0.50;99.90;;;;;;5076397;28;19924;-79
2022/01/09 07:19:54;;;;;;;;;;;0.50;99.90;;;;;;5076216;28;19991;-79
2022/01/09 07:22:21;;;;;;;;;;;0.60;99.90;;;;;;5076544;28;19928;-81
2022/01/09 07:24:47;;;;;;;;;;;0.60;99.90;;;;;;5077893;28;19925;-80
2022/01/09 07:27:14;;;;;;;;;;;0.50;99.90;;;;;;5079656;28;19924;-79
2022/01/09 07:29:42;;;;;;;;;;;0.60;99.90;;;;;;5080578;28;19947;-81
2022/01/09 07:32:08;;;;;;;;;;;0.70;99.90;;;;;;5079018;28;19955;-80
2022/01/09 07:34:35;;;;;;;;;;;0.70;99.90;;;;;;5078850;28;19964;-79
2022/01/09 07:37:03;;;;;;;;;;;0.80;99.90;;;;;;5078596;28;19951;-80
2022/01/09 07:39:29;;;;;;;;;;;0.70;99.90;;;;;;5077889;28;20389;-80
2022/01/09 07:41:57;;;;;;;;;;;0.70;99.90;;;;;;5077710;28;19962;-81
2022/01/09 07:44:24;;;;;;;;;;;0.70;99.90;;;;;;5079487;28;19924;-80
2022/01/09 07:46:51;;;;;;;;;;;0.70;99.90;;;;;;5077335;28;19947;-80
2022/01/09 07:49:18;;;;;;;;;;;0.70;99.90;;;;;;5077645;28;19951;-79
2022/01/09 07:51:45;;;;;;;;;;;0.80;99.90;;;;;;5076969;28;19929;-79
2022/01/09 07:54:12;;;;;;;;;;;0.80;99.90;;;;;;5078007;28;19931;-80
2022/01/09 07:56:39;;;;;;;;;;;0.80;99.90;;;;;;5080421;28;19924;-79
2022/01/09 07:59:05;;;;;;;;;;;0.80;99.90;;;;;;5081850;28;19977;-80
2022/01/09 08:01:32;;;;;;;;;;;0.90;99.90;;;;;;5079825;28;19925;-79
2022/01/09 08:03:59;;;;;;;;;;;0.90;99.90;;;;;;5078975;28;19964;-80
2022/01/09 08:06:26;;;;;;;;;;;0.90;99.90;;;;;;5080359;28;19924;-80
2022/01/09 08:08:53;;;;;;;;;;;1.00;99.90;;;;;;5081736;28;19925;-79
2022/01/09 08:11:22;;;;;;;;;;;1.00;99.90;;;;;;5083126;28;19928;-80
2022/01/09 08:13:49;;;;;;;;;;;1.00;99.90;;;;;;5089934;28;19925;-79
2022/01/09 08:16:15;;;;;;;;;;;1.00;99.90;;;;;;5089602;28;19924;-79
2022/01/09 08:18:42;;;;;;;;;;;1.00;99.90;;;;;;5087894;28;19995;-79
2022/01/09 08:21:10;;;;;;;;;;;1.00;99.90;;;;;;5086223;28;19925;-79
2022/01/09 08:23:37;;;;;;;;;;;1.10;99.90;;;;;;5090605;28;19924;-78
2022/01/09 08:26:03;;;;;;;;;;;1.10;99.90;;;;;;5086103;28;19971;-78
2022/01/09 08:28:30;;;;;;;;;;;1.20;99.90;;;;;;5083701;28;19931;-80
2022/01/09 08:30:56;;;;;;;;;;;1.20;99.90;;;;;;5082551;28;20375;-79
2022/01/09 08:33:24;;;;;;;;;;;1.20;99.90;;;;;;5081259;28;19993;-80
2022/01/09 08:35:51;;;;;;;;;;;1.20;99.90;;;;;;5080832;28;19982;-80
2022/01/09 08:38:21;;;;;;;;;;;1.20;99.90;;;;;;5080450;28;19994;-79
2022/01/09 08:40:48;;;;;;;;;;;1.20;99.90;;;;;;5081620;28;19924;-80
2022/01/09 08:43:14;;;;;;;;;;;1.30;99.90;;;;;;5080384;28;19967;-79
2022/01/09 08:45:41;;;;;;;;;;;1.30;99.90;;;;;;5080314;28;19971;-80
2022/01/09 08:48:16;;;;;;;;;;;1.30;99.90;;;;;;5080945;28;19978;-80
2022/01/09 08:50:43;;;;;;;;;;;1.30;99.90;;;;;;5101185;23;19925;-80
2022/01/09 08:53:10;;;;;;;;;;;1.30;99.90;;;;;;5083571;28;19924;-78
2022/01/09 08:55:37;;;;;;;;;;;1.50;99.90;;;;;;5091120;28;19935;-77
2022/01/09 08:58:04;;;;;;;;;;;1.40;99.90;;;;;;5088075;28;19975;-78
2022/01/09 09:00:30;;;;;;;;;;;1.40;99.90;;;;;;5088068;28;19946;-77
2022/01/09 09:02:57;;;;;;;;;;;1.40;99.90;;;;;;5088801;28;19924;-78
2022/01/09 09:05:23;;;;;;;;;;;1.50;99.90;;;;;;5089022;28;19931;-78
2022/01/09 09:07:50;;;;;;;;;;;1.50;99.90;;;;;;5084517;28;19924;-79
2022/01/09 09:10:16;;;;;;;;;;;1.60;99.90;;;;;;5081279;28;19924;-78
2022/01/09 09:12:44;;;;;;;;;;;1.60;99.90;;;;;;5081026;28;19925;-80
2022/01/09 09:15:12;;;;;;;;;;;1.70;99.90;;;;;;5081767;28;19971;-80
2022/01/09 09:17:38;;;;;;;;;;;1.70;99.90;;;;;;5081192;28;19963;-80
2022/01/09 09:20:05;;;;;;;;;;;1.70;99.90;;;;;;5081473;28;19963;-80
2022/01/09 09:22:32;;;;;;;;;;;1.70;99.90;;;;;;5086268;28;20034;-78
2022/01/09 09:24:58;;;;;;;;;;;1.70;99.90;;;;;;5091432;28;19924;-79
2022/01/09 09:27:30;;;;;;;;;;;1.70;99.90;;;;;;5091149;28;20010;-78
2022/01/09 09:29:58;;;;;;;;;;;1.70;99.90;;;;;;5085521;28;19924;-78
2022/01/09 09:32:24;;;;;;;;;;;1.70;99.90;;;;;;5081068;28;19932;-78
2022/01/09 09:34:51;;;;;;;;;;;1.80;99.90;;;;;;5079558;28;20302;-80
2022/01/09 09:37:17;;;;;;;;;;;1.80;99.90;;;;;;5078719;28;19992;-80
2022/01/09 09:39:43;;;;;;;;;;;1.80;99.90;;;;;;5080597;28;19978;-79
2022/01/09 09:42:10;;;;;;;;;;;1.80;99.90;;;;;;5080400;28;20432;-80
2022/01/09 09:44:38;;;;;;;;;;;1.90;99.90;;;;;;5081728;28;19925;-81
2022/01/09 09:47:06;;;;;;;;;;;1.90;99.90;;;;;;5090809;28;19970;-78
2022/01/09 09:49:33;;;;;;;;;;;2.00;99.90;;;;;;5092062;28;19924;-78
2022/01/09 09:51:59;;;;;;;;;;;1.90;99.90;;;;;;5092057;28;19913;-78
2022/01/09 09:54:26;;;;;;;;;;;2.00;99.90;;;;;;5089170;28;19924;-79
2022/01/09 09:56:53;;;;;;;;;;;2.00;99.90;;;;;;5081272;28;19924;-80
2022/01/09 09:59:23;;;;;;;;;;;2.00;99.90;;;;;;5090905;28;19925;-78
2022/01/09 10:01:50;;;;;;;;;;;2.00;99.90;;;;;;5090739;28;19924;-79
2022/01/09 10:04:18;;;;;;;;;;;2.10;99.90;;;;;;5086313;28;19932;-79
2022/01/09 10:06:48;;;;;;;;;;;2.10;99.90;;;;;;5086860;28;19931;-79
2022/01/09 10:09:15;;;;;;;;;;;2.20;99.90;;;;;;5088525;28;19928;-79
2022/01/09 10:11:51;;;;;;;;;;;2.20;99.90;;;;;;5090131;28;19931;-79
2022/01/09 10:14:20;;;;;;;;;;;2.30;99.90;;;;;;5090872;28;19924;-79
2022/01/09 10:17:01;;;;;;;;;;;2.30;99.90;;;;;;5082021;28;19924;-79
2022/01/09 10:19:40;;;;;;;;;;;2.30;99.90;;;;;;5080691;28;20288;-80
2022/01/09 10:22:06;;;;;;;;;;;2.40;99.90;;;;;;5082437;28;19952;-79
2022/01/09 10:24:33;;;;;;;;;;;2.40;99.90;;;;;;5082609;28;19931;-79
2022/01/09 10:27:00;;;;;;;;;;;2.50;99.90;;;;;;5079741;28;19931;-80
2022/01/09 10:29:30;;;;;;;;;;;2.50;99.90;;;;;;5080059;28;19924;-80
2022/01/09 10:31:57;;;;;;;;;;;2.60;99.90;;;;;;5077763;28;19968;-80
2022/01/09 10:34:23;;;;;;;;;;;2.70;99.90;;;;;;5078494;28;19947;-80
2022/01/09 10:36:53;;;;;;;;;;;2.70;99.90;;;;;;5078384;28;21530;-79
2022/01/09 10:39:21;;;;;;;;;;;2.70;99.90;;;;;;5079378;28;19971;-79
2022/01/09 10:41:48;;;;;;;;;;;2.70;99.90;;;;;;5082291;28;20288;-80
2022/01/09 10:44:15;;;;;;;;;;;2.80;99.90;;;;;;5082557;28;19980;-78
2022/01/09 10:46:52;;;;;;;;;;;2.80;99.90;;;;;;5082112;28;19966;-78
2022/01/09 10:49:18;;;;;;;;;;;2.70;99.90;;;;;;5078434;28;20280;-78
2022/01/09 10:51:45;;;;;;;;;;;2.80;99.90;;;;;;5079721;28;19928;-80
2022/01/09 10:54:27;;;;;;;;;;;2.70;99.90;;;;;;5079700;28;20326;-79
2022/01/09 10:57:08;;;;;;;;;;;2.80;99.90;;;;;;5079558;28;19978;-80
2022/01/09 10:59:35;;;;;;;;;;;2.80;99.90;;;;;;5080561;28;20381;-79
2022/01/09 11:02:01;;;;;;;;;;;2.80;99.90;;;;;;5079689;28;19924;-78
2022/01/09 11:04:29;;;;;;;;;;;2.90;99.90;;;;;;5079176;28;19924;-79
2022/01/09 11:06:56;;;;;;;;;;;3.00;99.90;;;;;;5079257;28;19946;-79
2022/01/09 11:09:26;;;;;;;;;;;3.00;99.90;;;;;;5082847;28;19925;-79
2022/01/09 11:11:53;;;;;;;;;;;3.00;99.90;;;;;;5082631;28;19924;-79
2022/01/09 11:14:21;;;;;;;;;;;3.00;99.90;;;;;;5080226;28;19932;-79
2022/01/09 11:16:51;;;;;;;;;;;3.00;99.90;;;;;;5079072;28;19924;-79
2022/01/09 11:19:18;;;;;;;;;;;3.00;99.90;;;;;;5078661;28;19974;-80
2022/01/09 11:21:46;;;;;;;;;;;3.00;99.90;;;;;;5078700;28;19968;-79
2022/01/09 11:24:21;;;;;;;;;;;3.00;99.90;;;;;;5081368;28;19925;-79
2022/01/09 11:26:51;;;;;;;;;;;3.00;99.90;;;;;;5080870;28;19924;-78
2022/01/09 11:29:20;;;;;;;;;;;3.10;99.90;;;;;;5085234;28;19932;-77
2022/01/09 11:31:49;;;;;;;;;;;3.10;99.90;;;;;;5088655;28;19966;-78
2022/01/09 11:34:19;;;;;;;;;;;3.10;99.90;;;;;;5088604;28;20239;-78
2022/01/09 11:36:52;;;;;;;;;;;3.10;99.90;;;;;;5086013;28;20070;-78
2022/01/09 11:39:23;;;;;;;;;;;3.20;99.90;;;;;;5084649;28;19931;-79
2022/01/09 11:42:05;;;;;;;;;;;3.50;99.90;;;;;;5084636;28;19924;-80
2022/01/09 11:44:32;;;;;;;;;;;3.20;99.90;;;;;;5083543;28;19924;-80
2022/01/09 11:47:00;;;;;;;;;;;3.20;99.90;;;;;;5083360;28;19925;-80
2022/01/09 11:49:27;;;;;;;;;;;3.30;99.90;;;;;;5083303;28;20390;-80
2022/01/09 11:51:54;;;;;;;;;;;3.40;99.90;;;;;;5082562;28;19924;-79
2022/01/09 11:54:22;;;;;;;;;;;3.30;99.90;;;;;;5082032;28;20395;-80
2022/01/09 11:56:51;;;;;;;;;;;3.40;99.90;;;;;;5082660;28;19931;-80
2022/01/09 11:59:23;;;;;;;;;;;3.40;99.90;;;;;;5081858;28;19924;-80
2022/01/09 12:01:51;;;;;;;;;;;3.40;99.90;;;;;;5081725;28;19978;-79
2022/01/09 12:04:36;;;;;;;;;;;3.50;99.90;;;;;;5080826;28;19925;-80
2022/01/09 12:07:04;;;;;;;;;;;3.50;99.90;;;;;;5081201;28;19924;-80
2022/01/09 12:09:31;;;;;;;;;;;3.50;99.90;;;;;;5084136;28;19925;-79
2022/01/09 12:12:08;;;;;;;;;;;3.50;99.90;;;;;;5090915;28;19924;-78
2022/01/09 12:14:56;;;;;;;;;;;3.60;99.90;;;;;;5093639;28;19928;-78
2022/01/09 12:17:42;;;;;;;;;;;3.60;99.90;;;;;;5092669;28;19998;-78
2022/01/09 12:20:10;;;;;;;;;;;3.70;99.90;;;;;;5084092;28;19974;-79
2022/01/09 12:23:01;;;;;;;;;;;3.70;99.90;;;;;;5082668;28;19974;-80
2022/01/09 12:25:45;;;;;;;;;;;3.80;99.90;;;;;;5083997;28;19971;-79
2022/01/09 12:28:14;;;;;;;;;;;3.80;99.90;;;;;;5087929;28;19928;-78
2022/01/09 12:30:47;;;;;;;;;;;3.90;99.90;;;;;;5086571;28;19925;-80
2022/01/09 12:33:15;;;;;;;;;;;3.90;99.90;;;;;;5082707;28;20411;-78
2022/01/09 12:35:43;;;;;;;;;;;3.90;99.90;;;;;;5082153;28;20026;-79
2022/01/09 12:38:14;;;;;;;;;;;3.90;99.90;;;;;;5082196;28;19924;-79
2022/01/09 12:40:40;;;;;;;;;;;4.00;99.90;;;;;;5082516;28;20375;-78
2022/01/09 12:43:07;;;;;;;;;;;4.00;99.90;;;;;;5088731;28;19960;-78
2022/01/09 12:45:35;;;;;;;;;;;5.30;99.90;;;;;;5091177;28;20016;-78
2022/01/09 12:48:05;;;;;;;;;;;3.90;99.90;;;;;;5091018;28;19925;-79
2022/01/09 12:50:32;;;;;;;;;;;3.90;99.90;;;;;;5088773;28;20291;-79
2022/01/09 12:53:15;;;;;;;;;;;3.80;99.90;;;;;;5086959;28;20022;-79
2022/01/09 12:55:56;;;;;;;;;;;3.90;99.90;;;;;;5084035;28;19925;-79
2022/01/09 12:58:24;;;;;;;;;;;3.90;99.90;;;;;;5085554;28;19928;-78
2022/01/09 13:00:50;;;;;;;;;;;3.90;99.90;;;;;;5082114;28;19924;-80
2022/01/09 13:03:19;;;;;;;;;;;3.80;99.90;;;;;;5084233;28;19925;-80
2022/01/09 13:05:52;;;;;;;;;;;3.90;99.90;;;;;;5087456;28;19994;-81
2022/01/09 13:08:19;;;;;;;;;;;3.90;99.90;;;;;;5088008;28;19925;-80
2022/01/09 13:10:45;;;;;;;;;;;3.90;99.90;;;;;;5085069;28;19929;-79
2022/01/09 13:13:13;;;;;;;;;;;3.90;99.90;;;;;;5084315;28;19925;-79
2022/01/09 13:15:40;;;;;;;;;;;3.90;99.90;;;;;;5085910;28;20333;-79
2022/01/09 13:18:07;;;;;;;;;;;3.90;99.90;;;;;;5086911;28;19925;-79
2022/01/09 13:20:34;;;;;;;;;;;3.90;99.90;;;;;;5088184;28;19931;-80
2022/01/09 13:23:05;;;;;;;;;;;3.80;99.90;;;;;;5088709;28;20030;-79
2022/01/09 13:25:41;;;;;;;;;;;3.80;99.90;;;;;;5088349;28;19931;-81
2022/01/09 13:28:08;;;;;;;;;;;3.80;99.90;;;;;;5083999;28;19925;-79
2022/01/09 13:30:34;;;;;;;;;;;3.80;99.90;;;;;;5086041;28;19932;-79
2022/01/09 13:33:01;;;;;;;;;;;3.70;99.90;;;;;;5088132;28;19935;-79
2022/01/09 13:35:28;;;;;;;;;;;3.80;99.90;;;;;;5088184;28;19925;-78
2022/01/09 13:37:57;;;;;;;;;;;3.80;99.90;;;;;;5088043;28;19924;-79
2022/01/09 13:40:24;;;;;;;;;;;3.80;99.90;;;;;;5087811;28;19952;-79
2022/01/09 13:42:51;;;;;;;;;;;3.80;99.90;;;;;;5087748;28;19961;-79
2022/01/09 13:45:20;;;;;;;;;;;3.80;99.90;;;;;;5087169;28;19932;-79
2022/01/09 13:47:47;;;;;;;;;;;3.80;99.90;;;;;;5087469;28;19925;-78
2022/01/09 13:50:15;;;;;;;;;;;3.80;99.90;;;;;;5088135;28;19924;-79
2022/01/09 13:52:42;;;;;;;;;;;3.80;99.90;;;;;;5086449;28;19925;-79
2022/01/09 13:55:10;;;;;;;;;;;3.80;99.90;;;;;;5087994;28;19924;-78
2022/01/09 13:57:47;;;;;;;;;;;3.80;99.90;;;;;;5086705;28;19986;-79
2022/01/09 14:00:14;;;;;;;;;;;3.80;99.90;;;;;;5087323;28;19967;-80
2022/01/09 14:02:41;;;;;;;;;;;3.80;99.90;;;;;;5088266;28;19925;-80
2022/01/09 14:05:11;;;;;;;;;;;3.80;99.90;;;;;;5088175;28;19925;-78
2022/01/09 14:07:38;;;;;;;;;;;3.90;99.90;;;;;;5087075;28;19924;-78
2022/01/09 14:10:05;;;;;;;;;;;3.90;99.90;;;;;;5087449;28;19924;-78
2022/01/09 14:12:35;;;;;;;;;;;3.90;99.90;;;;;;5087560;28;19946;-78
2022/01/09 14:15:10;;;;;;;;;;;3.90;99.90;;;;;;5088034;28;19925;-78
2022/01/09 14:17:37;;;;;;;;;;;3.90;99.90;;;;;;5087508;28;19928;-78
2022/01/09 14:20:04;;;;;;;;;;;3.90;99.90;;;;;;5088453;28;19924;-79
2022/01/09 14:22:37;;;;;;;;;;;3.90;99.90;;;;;;5089802;28;19924;-79
2022/01/09 14:25:05;;;;;;;;;;;3.90;99.90;;;;;;5088680;28;19924;-77
2022/01/09 14:27:34;;;;;;;;;;;3.90;99.90;;;;;;5087246;28;19924;-79
2022/01/09 14:30:01;;;;;;;;;;;3.90;99.90;;;;;;5086846;28;19924;-79